createdAt,value
2022-09-06T00:01:30.236Z,7.63
2022-09-06T00:04:02.644Z,8.82
2022-09-06T00:09:07.942Z,9.80
2022-09-06T00:11:41.498Z,11.45
2022-09-06T00:14:13.646Z,9.27
2022-09-06T00:19:17.362Z,6.35
2022-09-06T00:21:49.469Z,8.25
2022-09-06T00:24:21.770Z,7.30
2022-09-06T00:29:25.346Z,5.63
2022-09-06T00:31:57.730Z,5.93
2022-09-06T00:37:02.101Z,9.10
2022-09-06T00:39:34.315Z,6.05
2022-09-06T00:42:10.859Z,5.35
2022-09-06T00:44:43.031Z,8.50
2022-09-06T00:47:15.647Z,5.75
2022-09-06T00:49:52.425Z,6.75
2022-09-06T00:52:25.686Z,4.88
2022-09-06T00:54:58.923Z,7.57
2022-09-06T00:57:33.606Z,7.18
2022-09-06T01:00:09.944Z,6.22
2022-09-06T01:02:42.142Z,4.55
2022-09-06T01:05:15.473Z,10.57
2022-09-06T01:08:04.694Z,5.75
2022-09-06T01:11:27.344Z,5.78
2022-09-06T01:14:11.793Z,5.20
2022-09-06T01:17:07.753Z,6.10
2022-09-06T01:20:25.452Z,4.45
2022-09-06T01:23:18.801Z,4.40
2022-09-06T01:26:24.738Z,5.47
2022-09-06T01:28:57.345Z,7.30
2022-09-06T01:32:24.829Z,5.72
2022-09-06T01:35:07.618Z,6.28
2022-09-06T01:37:39.999Z,4.85
2022-09-06T01:40:12.498Z,5.13
2022-09-06T01:42:48.085Z,5.25
2022-09-06T01:45:23.560Z,4.93
2022-09-06T01:48:15.322Z,4.80
2022-09-06T01:51:06.031Z,7.72
2022-09-06T01:53:47.161Z,6.00
2022-09-06T01:56:48.210Z,4.43
2022-09-06T01:59:49.365Z,5.95
2022-09-06T02:02:33.840Z,5.60
2022-09-06T02:05:24.392Z,4.57
2022-09-06T02:08:19.043Z,4.97
2022-09-06T02:11:05.335Z,5.20
2022-09-06T02:13:52.724Z,5.10
2022-09-06T02:16:28.864Z,6.20
2022-09-06T02:19:22.135Z,5.97
2022-09-06T02:21:56.339Z,4.93
2022-09-06T02:24:33.474Z,4.70
2022-09-06T02:27:06.261Z,4.80
2022-09-06T02:29:38.697Z,4.50
2022-09-06T02:34:44.034Z,4.70
2022-09-06T02:37:18.405Z,6.75
2022-09-06T02:39:50.646Z,5.25
2022-09-06T02:42:24.819Z,9.73
2022-09-06T02:44:57.228Z,4.97
2022-09-06T02:47:29.416Z,5.60
2022-09-06T02:50:02.337Z,5.13
2022-09-06T02:52:34.913Z,4.60
2022-09-06T02:55:07.660Z,7.57
2022-09-06T02:57:39.890Z,7.85
2022-09-06T03:00:12.664Z,4.43
2022-09-06T03:02:44.900Z,5.55
2022-09-06T03:05:17.440Z,5.82
2022-09-06T03:07:49.708Z,6.97
2022-09-06T03:10:22.511Z,4.38
2022-09-06T03:12:55.445Z,5.60
2022-09-06T03:15:27.566Z,3.97
2022-09-06T03:18:01.313Z,4.63
2022-09-06T03:20:37.009Z,4.55
2022-09-06T03:23:09.529Z,4.65
2022-09-06T03:25:42.022Z,4.95
2022-09-06T03:28:14.553Z,3.67
2022-09-06T03:30:51.358Z,4.70
2022-09-06T03:33:24.383Z,4.22
2022-09-06T03:36:01.820Z,3.72
2022-09-06T03:38:33.972Z,4.13
2022-09-06T03:41:06.154Z,3.60
2022-09-06T03:43:38.354Z,5.38
2022-09-06T03:46:10.594Z,3.95
2022-09-06T03:48:42.846Z,3.38
2022-09-06T03:51:14.926Z,3.88
2022-09-06T03:53:47.593Z,3.38
2022-09-06T03:56:19.679Z,5.68
2022-09-06T03:58:51.849Z,8.45
2022-09-06T04:01:24.106Z,3.70
2022-09-06T04:03:56.339Z,3.53
2022-09-06T04:06:29.529Z,2.90
2022-09-06T04:09:01.669Z,3.28
2022-09-06T04:11:33.976Z,4.00
2022-09-06T04:14:06.241Z,3.35
2022-09-06T04:16:38.627Z,4.20
2022-09-06T04:19:10.889Z,3.25
2022-09-06T04:21:43.046Z,3.63
2022-09-06T04:24:15.199Z,3.10
2022-09-06T04:26:47.290Z,4.35
2022-09-06T04:29:19.396Z,3.42
2022-09-06T04:31:51.609Z,3.50
2022-09-06T04:34:23.862Z,3.22
2022-09-06T04:36:56.068Z,2.92
2022-09-06T04:39:28.212Z,3.00
2022-09-06T04:42:00.303Z,7.00
2022-09-06T04:44:32.429Z,4.40
2022-09-06T04:47:14.121Z,7.68
2022-09-06T04:49:46.812Z,4.93
2022-09-06T04:52:19.655Z,2.70
2022-09-06T04:54:51.874Z,3.33
2022-09-06T04:57:24.031Z,2.90
2022-09-06T04:59:56.192Z,3.70
2022-09-06T05:02:29.158Z,3.20
2022-09-06T05:05:01.260Z,4.63
2022-09-06T05:07:33.354Z,3.00
2022-09-06T05:10:05.658Z,3.13
2022-09-06T05:12:42.076Z,3.78
2022-09-06T05:15:16.209Z,6.55
2022-09-06T05:17:48.919Z,3.17
2022-09-06T05:20:21.192Z,3.42
2022-09-06T05:22:56.196Z,3.10
2022-09-06T05:25:28.325Z,5.22
2022-09-06T05:28:00.697Z,3.15
2022-09-06T05:30:32.690Z,4.10
2022-09-06T05:35:36.430Z,4.63
2022-09-06T05:38:08.554Z,2.60
2022-09-06T05:40:40.944Z,2.60
2022-09-06T05:43:13.374Z,3.90
2022-09-06T05:45:46.742Z,2.75
2022-09-06T05:48:21.132Z,2.20
2022-09-06T05:54:00.993Z,2.43
2022-09-06T05:56:33.133Z,2.38
2022-09-06T05:59:05.881Z,2.28
2022-09-06T06:01:38.085Z,2.63
2022-09-06T06:04:11.033Z,2.50
2022-09-06T06:06:43.149Z,2.13
2022-09-06T06:09:15.735Z,2.78
2022-09-06T06:11:48.268Z,2.50
2022-09-06T06:14:20.428Z,2.03
2022-09-06T06:16:53.455Z,4.25
2022-09-06T06:19:25.525Z,2.33
2022-09-06T06:21:59.789Z,3.88
2022-09-06T06:24:31.947Z,3.00
2022-09-06T06:27:04.302Z,2.35
2022-09-06T06:29:36.926Z,3.58
2022-09-06T06:32:09.089Z,2.63
2022-09-06T06:34:41.248Z,2.35
2022-09-06T06:37:13.443Z,2.53
2022-09-06T06:39:45.642Z,2.25
2022-09-06T06:42:17.879Z,4.47
2022-09-06T06:44:57.283Z,3.97
2022-09-06T06:47:29.319Z,3.38
2022-09-06T06:50:01.476Z,2.35
2022-09-06T06:52:33.892Z,5.25
2022-09-06T06:55:07.405Z,8.23
2022-09-06T06:57:39.682Z,10.00
2022-09-06T07:00:12.628Z,14.85
2022-09-06T07:02:45.382Z,13.93
2022-09-06T07:08:13.396Z,8.02
2022-09-06T07:10:45.544Z,14.80
2022-09-06T07:13:17.894Z,11.20
2022-09-06T07:15:50.191Z,15.73
2022-09-06T07:18:22.374Z,11.95
2022-09-06T07:26:40.841Z,11.65
2022-09-06T07:29:13.100Z,9.10
2022-09-06T07:34:39.239Z,7.35
2022-09-06T07:37:11.662Z,6.78
2022-09-06T07:39:44.142Z,6.32
2022-09-06T07:42:17.724Z,8.63
2022-09-06T07:44:49.902Z,11.88
2022-09-06T07:55:49.665Z,6.68
2022-09-06T07:58:21.857Z,7.60
2022-09-06T08:00:54.052Z,4.38
2022-09-06T08:03:26.348Z,4.45
2022-09-06T08:06:13.717Z,4.78
2022-09-06T08:09:01.185Z,3.28
2022-09-06T08:11:35.374Z,4.45
2022-09-06T08:14:10.008Z,4.40
2022-09-06T08:16:42.363Z,7.90
2022-09-06T08:19:16.206Z,6.85
2022-09-06T08:21:48.480Z,8.77
2022-09-06T08:24:23.753Z,5.97
2022-09-06T08:26:56.100Z,4.15
2022-09-06T08:29:32.468Z,4.82
2022-09-06T08:32:04.993Z,8.52
2022-09-06T08:34:37.115Z,5.63
2022-09-06T08:37:09.770Z,7.80
2022-09-06T08:39:41.973Z,6.72
2022-09-06T08:42:14.801Z,6.63
2022-09-06T08:47:31.716Z,12.20
2022-09-06T08:50:08.417Z,5.43
2022-09-06T08:53:23.817Z,9.93
2022-09-06T08:56:25.606Z,9.88
2022-09-06T08:59:09.330Z,6.80
2022-09-06T09:01:55.676Z,11.32
2022-09-06T09:04:32.345Z,6.25
2022-09-06T09:07:21.102Z,6.75
2022-09-06T09:09:56.789Z,13.57
2022-09-06T09:12:32.453Z,9.77
2022-09-06T09:15:11.376Z,7.88
2022-09-06T09:17:45.021Z,7.60
2022-09-06T09:20:17.325Z,6.65
2022-09-06T09:22:50.476Z,11.05
2022-09-06T09:25:26.056Z,8.52
2022-09-06T09:27:59.224Z,14.48
2022-09-06T09:30:55.138Z,9.07
2022-09-06T09:33:37.340Z,9.40
2022-09-06T09:36:15.651Z,11.80
2022-09-06T09:38:54.391Z,9.10
2022-09-06T09:41:32.178Z,4.78
2022-09-06T09:44:29.600Z,5.78
2022-09-06T09:47:01.813Z,7.95
2022-09-06T09:49:34.772Z,4.45
2022-09-06T09:52:15.686Z,3.97
2022-09-06T09:54:49.278Z,6.43
2022-09-06T09:57:21.824Z,4.95
2022-09-06T10:00:04.926Z,7.88
2022-09-06T10:02:42.409Z,6.18
2022-09-06T10:05:14.484Z,8.82
2022-09-06T10:07:59.162Z,4.50
2022-09-06T10:10:48.400Z,11.35
2022-09-06T10:13:31.803Z,3.65
2022-09-06T10:16:07.484Z,6.22
2022-09-06T10:18:41.508Z,3.25
2022-09-06T10:21:26.606Z,6.25
2022-09-06T10:27:04.680Z,8.38
2022-09-06T10:29:54.465Z,4.07
2022-09-06T10:32:49.373Z,13.45
2022-09-06T10:35:33.714Z,3.88
2022-09-06T10:38:24.402Z,5.45
2022-09-06T10:40:59.275Z,4.10
2022-09-06T10:43:46.977Z,3.63
2022-09-06T10:46:24.194Z,8.30
2022-09-06T10:48:56.671Z,10.25
2022-09-06T10:51:47.066Z,6.75
2022-09-06T10:54:25.342Z,6.35
2022-09-06T10:57:05.310Z,5.18
2022-09-06T10:59:46.205Z,6.28
2022-09-06T11:02:19.345Z,5.28
2022-09-06T11:10:46.895Z,3.55
2022-09-06T11:13:21.873Z,6.35
2022-09-06T11:16:05.843Z,3.50
2022-09-06T11:18:49.703Z,4.72
2022-09-06T11:21:48.950Z,9.68
2022-09-06T11:24:47.940Z,4.43
2022-09-06T11:27:40.916Z,4.00
2022-09-06T11:30:18.528Z,3.30
2022-09-06T11:33:24.234Z,7.05
2022-09-06T11:36:16.732Z,3.10
2022-09-06T11:39:00.336Z,2.92
2022-09-06T11:41:40.050Z,3.60
2022-09-06T11:44:12.755Z,2.85
2022-09-06T11:46:44.924Z,5.75
2022-09-06T11:49:38.732Z,4.75
2022-09-06T11:52:52.547Z,3.20
2022-09-06T11:55:31.784Z,2.17
2022-09-06T11:58:28.598Z,2.28
2022-09-06T12:01:20.252Z,5.72
2022-09-06T12:04:05.375Z,2.43
2022-09-06T12:07:05.773Z,3.00
2022-09-06T12:09:45.156Z,7.20
2022-09-06T12:12:41.492Z,3.67
2022-09-06T12:16:02.658Z,3.38
2022-09-06T12:18:50.305Z,3.10
2022-09-06T12:21:44.367Z,6.93
2022-09-06T12:24:39.940Z,3.40
2022-09-06T12:27:19.399Z,5.10
2022-09-06T12:30:05.795Z,3.67
2022-09-06T12:32:48.836Z,3.38
2022-09-06T12:38:25.856Z,3.30
2022-09-06T12:41:00.452Z,3.85
2022-09-06T12:43:37.561Z,3.92
2022-09-06T12:46:09.891Z,4.00
2022-09-06T12:48:45.822Z,7.32
2022-09-06T12:51:25.022Z,4.00
2022-09-06T12:54:03.384Z,3.97
2022-09-06T12:56:36.403Z,3.97
2022-09-06T12:59:18.542Z,4.43
2022-09-06T13:04:42.299Z,3.33
2022-09-06T13:07:19.507Z,2.83
2022-09-06T13:09:55.591Z,3.80
2022-09-06T13:12:31.067Z,3.65
2022-09-06T13:15:21.572Z,3.78
2022-09-06T13:17:55.586Z,4.18
2022-09-06T13:20:31.482Z,3.63
2022-09-06T13:23:12.827Z,9.48
2022-09-06T13:25:53.373Z,7.27
2022-09-06T13:28:36.199Z,3.75
2022-09-06T13:31:20.396Z,2.92
2022-09-06T13:34:01.933Z,7.35
2022-09-06T13:36:35.281Z,4.38
2022-09-06T13:39:07.448Z,9.88
2022-09-06T13:41:42.653Z,7.93
2022-09-06T13:44:17.464Z,5.80
2022-09-06T13:46:56.581Z,2.97
2022-09-06T13:49:30.619Z,4.55
2022-09-06T13:52:05.096Z,3.38
2022-09-06T13:54:38.065Z,6.53
2022-09-06T13:57:11.199Z,2.95
2022-09-06T13:59:44.323Z,3.15
2022-09-06T14:02:19.148Z,16.17
2022-09-06T14:04:51.223Z,17.48
2022-09-06T14:09:56.181Z,11.40
2022-09-06T14:12:31.033Z,12.93
2022-09-06T14:15:05.847Z,14.02
2022-09-06T14:17:38.826Z,14.18
2022-09-06T14:20:11.596Z,16.00
2022-09-06T14:22:44.001Z,6.18
2022-09-06T14:25:16.184Z,3.33
2022-09-06T14:27:50.104Z,7.18
2022-09-06T14:30:22.559Z,6.43
2022-09-06T14:32:54.748Z,2.50
2022-09-06T14:35:27.366Z,3.47
2022-09-06T14:38:00.027Z,7.80
2022-09-06T14:40:35.915Z,2.55
2022-09-06T14:43:08.470Z,2.40
2022-09-06T14:45:41.252Z,2.75
2022-09-06T14:48:13.395Z,3.28
2022-09-06T14:53:38.986Z,3.03
2022-09-06T14:56:12.529Z,3.83
2022-09-06T14:58:45.427Z,2.47
2022-09-06T15:01:28.187Z,4.65
2022-09-06T15:04:03.984Z,2.50
2022-09-06T15:06:38.300Z,3.83
2022-09-06T15:09:12.692Z,6.72
2022-09-06T15:11:47.387Z,3.80
2022-09-06T15:14:25.911Z,3.65
2022-09-06T15:17:01.208Z,3.90
2022-09-06T15:19:35.317Z,3.88
2022-09-06T15:22:08.821Z,4.15
2022-09-06T15:24:42.021Z,4.40
2022-09-06T15:27:14.297Z,5.38
2022-09-06T15:29:46.890Z,3.78
2022-09-06T15:32:19.293Z,3.90
2022-09-06T15:34:51.412Z,4.63
2022-09-06T15:37:23.737Z,3.50
2022-09-06T15:39:55.979Z,5.38
2022-09-06T15:42:28.147Z,3.75
2022-09-06T15:47:31.860Z,4.13
2022-09-06T15:52:36.347Z,3.85
2022-09-06T15:55:27.123Z,9.55
2022-09-06T15:57:59.206Z,3.75
2022-09-06T16:03:03.208Z,6.80
2022-09-06T16:08:31.146Z,5.53
2022-09-06T16:11:12.706Z,4.45
2022-09-06T16:13:46.638Z,9.93
2022-09-06T16:16:19.775Z,6.05
2022-09-06T16:18:53.591Z,7.95
2022-09-06T16:21:28.279Z,11.00
2022-09-06T16:24:05.904Z,10.63
2022-09-06T16:26:43.588Z,4.40
2022-09-06T16:29:17.839Z,14.75
2022-09-06T16:31:50.020Z,4.32
2022-09-06T16:36:54.253Z,4.60
2022-09-06T16:39:26.398Z,12.07
2022-09-06T16:41:58.587Z,8.55
2022-09-06T16:47:05.362Z,4.78
2022-09-06T16:49:37.757Z,4.03
2022-09-06T16:54:41.396Z,16.88
2022-09-06T16:59:45.122Z,12.93
2022-09-06T17:02:17.586Z,6.22
2022-09-06T17:04:51.092Z,6.65
2022-09-06T17:07:23.176Z,3.65
2022-09-06T17:12:26.786Z,3.58
2022-09-06T17:17:30.601Z,3.97
2022-09-06T17:20:02.698Z,10.13
2022-09-06T17:22:34.743Z,4.18
2022-09-06T17:27:39.101Z,16.60
2022-09-06T17:30:11.970Z,4.95
2022-09-06T17:32:44.112Z,7.40
2022-09-06T17:35:16.726Z,6.00
2022-09-06T17:37:49.582Z,5.45
2022-09-06T17:40:21.688Z,4.45
2022-09-06T17:42:54.269Z,3.75
2022-09-06T17:47:59.503Z,3.60
2022-09-06T17:53:06.925Z,3.58
2022-09-06T17:55:46.276Z,3.17
2022-09-06T17:58:18.535Z,4.45
2022-09-06T18:00:52.010Z,6.13
2022-09-06T18:03:24.601Z,6.20
2022-09-06T18:08:28.786Z,2.85
2022-09-06T18:11:00.979Z,4.15
2022-09-06T18:16:06.670Z,15.20
2022-09-06T18:18:39.288Z,8.93
2022-09-06T18:21:12.022Z,7.63
2022-09-06T18:23:44.166Z,4.82
2022-09-06T18:28:48.142Z,3.30
2022-09-06T18:31:22.658Z,6.63
2022-09-06T18:33:56.970Z,4.20
2022-09-06T18:36:32.184Z,4.10
2022-09-06T18:39:06.309Z,9.25
2022-09-06T18:41:56.565Z,3.08
2022-09-06T18:44:36.207Z,4.13
2022-09-06T18:47:11.382Z,3.53
2022-09-06T18:49:44.330Z,3.60
2022-09-06T18:52:17.528Z,3.80
2022-09-06T18:54:50.849Z,3.88
2022-09-06T18:57:23.165Z,6.22
2022-09-06T18:59:55.322Z,6.00
2022-09-06T19:05:01.066Z,2.63
2022-09-06T19:10:05.928Z,3.10
2022-09-06T19:12:38.048Z,3.35
2022-09-06T19:15:12.187Z,2.83
2022-09-06T19:17:44.490Z,5.30
2022-09-06T19:20:16.655Z,2.75
2022-09-06T19:25:23.413Z,3.25
2022-09-06T19:27:55.608Z,3.08
2022-09-06T19:32:59.188Z,3.53
2022-09-06T19:35:31.753Z,3.10
2022-09-06T19:38:03.892Z,2.90
2022-09-06T19:40:36.313Z,4.78
2022-09-06T19:43:08.550Z,2.97
2022-09-06T19:48:12.917Z,4.20
2022-09-06T19:50:45.740Z,3.28
2022-09-06T19:53:17.831Z,3.10
2022-09-06T19:55:50.175Z,3.80
2022-09-06T19:58:22.345Z,3.10
2022-09-06T20:03:31.914Z,2.70
2022-09-06T20:06:04.203Z,2.95
2022-09-06T20:08:37.908Z,3.63
2022-09-06T20:11:11.876Z,6.55
2022-09-06T20:13:44.258Z,5.53
2022-09-06T20:16:19.277Z,3.03
2022-09-06T20:18:53.858Z,3.05
2022-09-06T20:21:25.989Z,4.68
2022-09-06T20:24:00.516Z,2.85
2022-09-06T20:26:32.787Z,5.30
2022-09-06T20:31:39.115Z,2.97
2022-09-06T20:34:13.594Z,3.15
2022-09-06T20:36:45.685Z,2.90
2022-09-06T20:39:17.867Z,3.30
2022-09-06T20:44:21.941Z,2.93
2022-09-06T20:46:54.166Z,3.30
2022-09-06T20:49:26.696Z,3.28
2022-09-06T20:54:31.007Z,2.88
2022-09-06T20:57:03.100Z,3.55
2022-09-06T20:59:35.330Z,3.13
2022-09-06T21:04:39.757Z,3.58
2022-09-06T21:09:43.848Z,9.40
2022-09-06T21:12:15.976Z,4.15
2022-09-06T21:17:19.814Z,3.80
2022-09-06T21:19:52.151Z,3.83
2022-09-06T21:22:24.278Z,3.58
2022-09-06T21:27:28.002Z,4.03
2022-09-06T21:32:31.783Z,3.20
2022-09-06T21:35:03.974Z,3.20
2022-09-06T21:40:08.347Z,3.67
2022-09-06T21:42:40.671Z,3.55
2022-09-06T21:45:14.423Z,3.50
2022-09-06T21:47:46.577Z,3.97
2022-09-06T21:50:19.186Z,3.85
2022-09-06T21:52:51.298Z,7.10
2022-09-06T21:57:54.965Z,4.43
2022-09-06T22:00:27.170Z,6.88
2022-09-06T22:02:59.483Z,4.18
2022-09-06T22:05:31.754Z,4.63
2022-09-06T22:08:04.470Z,4.70
2022-09-06T22:10:36.794Z,7.65
2022-09-06T22:13:09.376Z,4.95
2022-09-06T22:15:42.053Z,5.05
2022-09-06T22:18:14.993Z,5.63
2022-09-06T22:20:47.527Z,5.43
2022-09-06T22:23:19.789Z,7.88
2022-09-06T22:26:05.468Z,6.30
2022-09-06T22:28:39.193Z,6.55
2022-09-06T22:31:12.488Z,6.95
2022-09-06T22:33:46.188Z,6.93
2022-09-06T22:36:18.864Z,8.50
2022-09-06T22:38:54.516Z,7.95
2022-09-06T22:41:28.960Z,7.70
2022-09-06T22:44:05.379Z,8.70
2022-09-06T22:46:38.700Z,8.68
2022-09-06T22:49:10.962Z,9.02
2022-09-06T22:51:43.559Z,9.25
2022-09-06T22:54:15.793Z,9.52
2022-09-06T22:56:47.998Z,9.00
2022-09-06T23:01:52.178Z,10.93
2022-09-06T23:04:24.761Z,11.38
2022-09-06T23:09:28.579Z,10.52
2022-09-06T23:12:00.698Z,12.75
2022-09-06T23:14:32.878Z,12.45
2022-09-06T23:17:05.237Z,22.23
2022-09-06T23:19:37.358Z,21.83
2022-09-06T23:24:41.342Z,23.05
2022-09-06T23:27:13.968Z,32.33
2022-09-06T23:29:47.432Z,24.85
2022-09-06T23:32:19.531Z,29.63
2022-09-06T23:34:51.651Z,28.00
2022-09-06T23:39:55.793Z,52.43
2022-09-06T23:45:00.502Z,38.72
2022-09-06T23:47:32.603Z,33.50
2022-09-06T23:52:36.907Z,31.85
2022-09-06T23:55:10.831Z,33.80
2022-09-06T23:57:42.926Z,27.85
